createdAt,value
2023-05-19T08:46:25.406Z,102462.81
2023-05-19T08:52:24.298Z,102438.53
2023-05-19T08:57:46.773Z,102444.19
2023-05-19T09:03:18.037Z,102442.91
2023-05-19T09:08:45.096Z,102429.84
2023-05-19T09:14:07.416Z,102423.63
2023-05-19T09:19:30.353Z,102429.38
2023-05-19T09:24:53.485Z,102417.84
2023-05-19T09:30:17.307Z,102422.31
2023-05-19T09:35:39.112Z,102422.97
2023-05-19T09:41:02.042Z,102410.34
2023-05-19T09:46:28.607Z,102416.31
2023-05-19T09:51:55.086Z,102412.47
2023-05-19T09:57:17.272Z,102411.84
2023-05-19T10:02:43.086Z,102412.72
2023-05-19T10:08:07.516Z,102417.59
2023-05-19T10:13:31.111Z,102409.25
2023-05-19T10:18:55.693Z,102403.72
2023-05-19T10:24:18.625Z,102399.00
2023-05-19T10:29:47.906Z,102391.53
2023-05-19T10:35:36.387Z,102393.66
2023-05-19T10:41:08.066Z,102391.94
2023-05-19T10:46:31.504Z,102393.25
2023-05-19T10:51:57.094Z,102385.16
2023-05-19T10:57:20.860Z,102376.81
2023-05-19T11:02:44.328Z,102375.75
2023-05-19T11:08:08.359Z,102385.34
2023-05-19T11:13:30.232Z,102378.97
2023-05-19T11:18:54.826Z,102378.97
2023-05-19T11:24:38.114Z,102362.94
2023-05-19T11:30:15.197Z,102361.88
2023-05-19T11:35:37.784Z,102348.41
2023-05-19T11:41:01.241Z,102354.81
2023-05-19T11:46:23.259Z,102347.97
2023-05-19T11:51:46.317Z,102342.81
2023-05-19T11:57:10.648Z,102339.41
2023-05-19T12:02:32.519Z,102330.41
2023-05-19T12:07:54.667Z,102333.41
2023-05-19T12:13:16.801Z,102324.22
2023-05-19T12:18:39.148Z,102319.72
2023-05-19T12:24:01.269Z,102316.13
2023-05-19T12:29:28.155Z,102313.56
2023-05-19T12:34:50.379Z,102297.97
2023-05-19T12:40:17.014Z,102298.19
2023-05-19T12:45:42.888Z,102295.41
2023-05-19T12:51:05.850Z,102300.13
2023-05-19T12:56:27.704Z,102286.22
2023-05-19T13:01:59.334Z,102284.09
2023-05-19T13:07:21.347Z,102276.19
2023-05-19T13:12:43.170Z,102284.97
2023-05-19T13:18:06.600Z,102276.63
2023-05-19T13:23:28.470Z,102265.75
2023-05-19T13:28:50.337Z,102277.72
2023-05-19T13:34:12.199Z,102263.81
2023-05-19T13:39:34.046Z,102264.69
2023-05-19T13:44:56.886Z,102255.28
2023-05-19T13:50:19.166Z,102243.31
2023-05-19T13:55:41.157Z,102246.97
2023-05-19T14:01:03.010Z,102247.16
2023-05-19T14:06:25.108Z,102251.63
2023-05-19T14:11:48.143Z,102248.03
2023-05-19T14:17:09.991Z,102241.59
2023-05-19T14:22:31.812Z,102247.16
2023-05-19T14:27:53.628Z,102251.63
2023-05-19T14:33:15.542Z,102239.69
2023-05-19T14:38:37.412Z,102235.84
2023-05-19T14:43:59.283Z,102239.47
2023-05-19T14:49:21.099Z,102227.09
2023-05-19T14:54:42.946Z,102241.84
2023-05-19T15:00:05.411Z,102229.84
2023-05-19T15:05:27.268Z,102223.22
2023-05-19T15:10:50.646Z,102216.59
2023-05-19T15:16:22.272Z,102211.69
2023-05-19T15:21:45.890Z,102206.78
2023-05-19T15:27:08.952Z,102203.34
2023-05-19T15:32:31.172Z,102201.44
2023-05-19T15:37:53.017Z,102196.09
2023-05-19T15:43:15.028Z,102192.25
2023-05-19T15:48:37.115Z,102188.63
2023-05-19T15:53:58.961Z,102181.13
2023-05-19T15:59:20.867Z,102184.16
2023-05-19T16:04:42.715Z,102178.59
2023-05-19T16:10:04.905Z,102188.63
2023-05-19T16:15:26.854Z,102189.47
2023-05-19T16:20:48.762Z,102178.81
2023-05-19T16:26:10.724Z,102176.03
2023-05-19T16:31:32.590Z,102175.81
2023-05-19T16:36:54.442Z,102158.28
2023-05-19T16:42:16.763Z,102152.09
2023-05-19T16:47:38.837Z,102169.25
2023-05-19T16:53:00.954Z,102168.59
2023-05-19T16:58:22.837Z,102166.28
2023-05-19T17:03:44.702Z,102163.50
2023-05-19T17:09:06.619Z,102175.47
2023-05-19T17:14:28.484Z,102167.34
2023-05-19T17:19:50.314Z,102169.28
2023-05-19T17:25:12.425Z,102170.34
2023-05-19T17:30:35.026Z,102165.63
2023-05-19T17:35:57.034Z,102169.72
2023-05-19T17:41:19.053Z,102173.13
2023-05-19T17:46:41.335Z,102169.97
2023-05-19T17:52:03.559Z,102174.88
2023-05-19T17:57:29.490Z,102188.75
2023-05-19T18:02:52.009Z,102175.31
2023-05-19T18:08:14.116Z,102176.38
2023-05-19T18:13:37.379Z,102169.38
2023-05-19T18:18:59.309Z,102179.59
2023-05-19T18:24:21.242Z,102178.97
2023-05-19T18:29:43.098Z,102183.91
2023-05-19T18:35:05.352Z,102184.13
2023-05-19T18:40:27.209Z,102182.41
2023-05-19T18:45:49.126Z,102182.41
2023-05-19T18:51:11.188Z,102190.75
2023-05-19T18:56:33.499Z,102192.69
2023-05-19T19:01:55.519Z,102196.53
2023-05-19T19:07:19.718Z,102195.69
2023-05-19T19:12:41.516Z,102205.91
2023-05-19T19:18:04.572Z,102209.75
2023-05-19T19:23:28.068Z,102212.78
2023-05-19T19:28:50.051Z,102217.47
2023-05-19T19:34:11.988Z,102217.69
2023-05-19T19:39:33.827Z,102227.91
2023-05-19T19:44:56.320Z,102230.28
2023-05-19T19:50:18.309Z,102235.84
2023-05-19T19:55:40.251Z,102241.63
2023-05-19T20:01:03.566Z,102243.53
2023-05-19T20:06:25.551Z,102243.75
2023-05-19T20:11:47.386Z,102254.84
2023-05-19T20:17:09.307Z,102257.63
2023-05-19T20:22:31.174Z,102257.63
2023-05-19T20:27:53.168Z,102255.09
2023-05-19T20:33:14.982Z,102256.34
2023-05-19T20:38:36.795Z,102262.97
2023-05-19T20:43:58.722Z,102269.81
2023-05-19T20:49:21.184Z,102273.91
2023-05-19T20:54:43.154Z,102271.53
2023-05-19T21:00:05.443Z,102278.16
2023-05-19T21:05:27.261Z,102271.78
2023-05-19T21:10:49.225Z,102273.03
2023-05-19T21:16:11.043Z,102278.78
2023-05-19T21:21:33.784Z,102279.66
2023-05-19T21:26:55.668Z,102278.16
2023-05-19T21:32:18.091Z,102275.59
2023-05-19T21:37:40.295Z,102283.06
2023-05-19T21:43:02.111Z,102280.28
2023-05-19T21:48:24.042Z,102271.97
2023-05-19T21:53:45.999Z,102278.59
2023-05-19T21:59:08.066Z,102284.16
2023-05-19T22:04:31.761Z,102276.03
2023-05-19T22:09:54.247Z,102278.16
2023-05-19T22:15:16.211Z,102277.31
2023-05-19T22:20:38.161Z,102271.78
2023-05-19T22:26:00.006Z,102269.22
2023-05-19T22:31:21.954Z,102267.53
2023-05-19T22:36:46.230Z,102270.28
2023-05-19T22:42:08.140Z,102275.84
2023-05-19T22:47:30.306Z,102270.50
2023-05-19T22:52:52.173Z,102261.34
2023-05-19T22:58:14.567Z,102263.25
2023-05-19T23:03:36.454Z,102267.94
2023-05-19T23:09:02.539Z,102262.41
2023-05-19T23:14:26.112Z,102255.16
2023-05-19T23:19:47.970Z,102257.28
2023-05-19T23:25:10.073Z,102254.72
2023-05-19T23:30:33.230Z,102258.34
2023-05-19T23:35:55.019Z,102253.03
2023-05-19T23:41:16.807Z,102250.44
2023-05-19T23:46:38.665Z,102260.94
2023-05-19T23:52:00.647Z,102250.91
